createdAt,value
2024-01-15T00:00:14.330Z,1.1
2024-01-15T00:01:21.007Z,1.1
2024-01-15T00:02:27.901Z,1.1
2024-01-15T00:03:35.652Z,1.1
2024-01-15T00:04:42.160Z,1.1
2024-01-15T00:05:49.267Z,1.1
2024-01-15T00:06:55.902Z,1.1
2024-01-15T00:08:02.995Z,1.1
2024-01-15T00:09:10.158Z,1.1
2024-01-15T00:10:17.182Z,1.1
2024-01-15T00:11:24.229Z,1.1
2024-01-15T00:12:30.929Z,1.2
2024-01-15T00:13:37.920Z,1.2
2024-01-15T00:14:45.119Z,1.2
2024-01-15T00:15:52.159Z,1.2
2024-01-15T00:16:59.254Z,1.2
2024-01-15T00:18:06.073Z,1.2
2024-01-15T00:19:13.234Z,1.2
2024-01-15T00:21:27.221Z,1.2
2024-01-15T00:22:34.248Z,1.1
2024-01-15T00:23:40.938Z,1.1
2024-01-15T00:24:48.042Z,1.1
2024-01-15T00:25:55.069Z,1.1
2024-01-15T00:27:02.146Z,1.1
2024-01-15T00:30:23.246Z,1
2024-01-15T00:32:35.268Z,1.1
2024-01-15T00:32:37.240Z,1.1
2024-01-15T00:33:44.374Z,1.1
2024-01-15T00:34:51.112Z,1.1
2024-01-15T00:35:57.976Z,1.2
2024-01-15T00:37:05.107Z,1.2
2024-01-15T00:38:12.178Z,1.2
2024-01-15T00:44:19.236Z,1.2
2024-01-15T00:44:54.321Z,1.2
2024-01-15T00:46:01.073Z,1.2
2024-01-15T00:47:07.998Z,1.2
2024-01-15T00:48:15.226Z,1.2
2024-01-15T00:49:22.263Z,1.2
2024-01-15T00:50:29.348Z,1.2
2024-01-15T00:51:35.942Z,1.2
2024-01-15T00:52:43.022Z,1.1
2024-01-15T00:53:50.060Z,1.1
2024-01-15T00:56:04.467Z,1.1
2024-01-15T00:57:11.018Z,1.1
2024-01-15T00:58:17.966Z,1.1
2024-01-15T00:59:25.122Z,1.1
2024-01-15T01:00:32.260Z,1.1
2024-01-15T01:01:39.375Z,1.1
2024-01-15T01:02:45.970Z,1
2024-01-15T01:03:53.167Z,1
2024-01-15T01:05:00.184Z,1
2024-01-15T01:06:07.316Z,1.1
2024-01-15T01:07:14.318Z,1.1
2024-01-15T01:08:20.988Z,1.1
2024-01-15T01:09:28.018Z,1.1
2024-01-15T01:10:35.177Z,1.1
2024-01-15T01:11:42.218Z,1.1
2024-01-15T01:12:49.376Z,1.2
2024-01-15T01:13:55.909Z,1.2
2024-01-15T01:15:03.102Z,1.2
2024-01-15T01:16:10.121Z,1.2
2024-01-15T01:17:18.244Z,1.1
2024-01-15T01:18:24.473Z,1
2024-01-15T01:19:31.207Z,0.8
2024-01-15T01:20:38.335Z,0.8
2024-01-15T01:21:45.301Z,0.7
2024-01-15T01:22:52.233Z,0.6
2024-01-15T01:25:05.926Z,0.5
2024-01-15T01:26:13.091Z,0.4
2024-01-15T01:27:20.119Z,0.4
2024-01-15T01:28:27.242Z,0.3
2024-01-15T01:29:33.839Z,0.3
2024-01-15T01:30:41.234Z,0.3
2024-01-15T01:31:48.635Z,0.2
2024-01-15T01:32:55.150Z,0.2
2024-01-15T01:34:02.342Z,0.3
2024-01-15T01:35:09.452Z,0.3
2024-01-15T01:36:16.002Z,0.2
2024-01-15T01:37:23.246Z,0.2
2024-01-15T01:38:30.184Z,0.2
2024-01-15T01:39:37.342Z,0.2
2024-01-15T01:40:43.878Z,0.2
2024-01-15T01:41:51.165Z,0.2
2024-01-15T01:42:58.634Z,0.3
2024-01-15T01:44:05.185Z,0.3
2024-01-15T01:45:12.365Z,0.3
2024-01-15T01:46:19.382Z,0.3
2024-01-15T01:47:26.182Z,0.4
2024-01-15T01:48:33.442Z,0.4
2024-01-15T01:49:40.302Z,0.4
2024-01-15T01:50:47.363Z,0.4
2024-01-15T01:51:53.920Z,0.4
2024-01-15T01:53:00.938Z,0.4
2024-01-15T01:54:08.153Z,0.4
2024-01-15T01:55:15.185Z,0.4
2024-01-15T01:56:22.287Z,0.4
2024-01-15T01:57:28.894Z,0.4
2024-01-15T01:58:36.013Z,0.4
2024-01-15T01:59:43.134Z,0.4
2024-01-15T02:00:50.330Z,0.4
2024-01-15T02:01:57.298Z,0.4
2024-01-15T02:03:04.166Z,0.4
2024-01-15T02:04:11.060Z,0.5
2024-01-15T02:05:18.128Z,0.5
2024-01-15T02:06:25.374Z,0.5
2024-01-15T02:07:32.274Z,0.6
2024-01-15T02:08:38.862Z,0.6
2024-01-15T02:09:46.121Z,0.6
2024-01-15T02:10:53.164Z,0.6
2024-01-15T02:12:00.235Z,0.6
2024-01-15T02:13:07.326Z,0.6
2024-01-15T02:14:13.924Z,0.6
2024-01-15T02:15:21.056Z,0.6
2024-01-15T02:16:28.180Z,0.6
2024-01-15T02:18:42.401Z,0.7
2024-01-15T02:25:23.918Z,0.7
2024-01-15T02:28:45.261Z,0.7
2024-01-15T02:29:52.324Z,0.7
2024-01-15T02:30:58.968Z,0.7
2024-01-15T02:32:06.026Z,0.7
2024-01-15T02:33:13.710Z,0.7
2024-01-15T02:34:20.265Z,0.7
2024-01-15T02:35:27.363Z,0.7
2024-01-15T02:36:34.013Z,0.6
2024-01-15T02:37:41.042Z,0.6
2024-01-15T02:38:48.141Z,0.5
2024-01-15T02:39:55.236Z,0.4
2024-01-15T02:41:02.338Z,0.4
2024-01-15T02:42:09.013Z,0.4
2024-01-15T02:43:16.098Z,0.3
2024-01-15T02:44:23.233Z,0.3
2024-01-15T02:45:30.333Z,0.3
2024-01-15T02:46:37.842Z,0.3
2024-01-15T02:47:43.981Z,0.3
2024-01-15T02:48:51.867Z,0.3
2024-01-15T02:49:58.141Z,0.3
2024-01-15T02:51:05.291Z,0.3
2024-01-15T02:52:14.677Z,0.3
2024-01-15T02:53:19.071Z,0.3
2024-01-15T02:54:26.094Z,0.3
2024-01-15T02:55:33.149Z,0.2
2024-01-15T02:56:40.231Z,0.3
2024-01-15T02:57:47.468Z,0.3
2024-01-15T02:58:53.962Z,0.3
2024-01-15T03:00:03.192Z,0.3
2024-01-15T03:01:08.254Z,0.3
2024-01-15T03:02:15.267Z,0.3
2024-01-15T03:03:22.472Z,0.4
2024-01-15T03:04:29.244Z,0.4
2024-01-15T03:05:36.199Z,0.4
2024-01-15T03:06:43.235Z,0.4
2024-01-15T03:07:50.258Z,0.4
2024-01-15T03:08:57.398Z,0.4
2024-01-15T03:10:03.994Z,0.5
2024-01-15T03:11:11.882Z,0.4
2024-01-15T03:12:18.227Z,0.5
2024-01-15T03:13:25.319Z,0.5
2024-01-15T03:14:32.384Z,0.6
2024-01-15T03:15:39.029Z,0.6
2024-01-15T03:16:46.142Z,0.6
2024-01-15T03:17:53.229Z,0.6
2024-01-15T03:19:00.385Z,0.6
2024-01-15T03:20:07.445Z,0.6
2024-01-15T03:21:14.028Z,0.6
2024-01-15T03:22:21.062Z,0.6
2024-01-15T03:23:28.177Z,0.6
2024-01-15T03:24:35.357Z,0.5
2024-01-15T03:25:42.417Z,0.5
2024-01-15T03:26:49.021Z,0.5
2024-01-15T03:27:56.144Z,0.5
2024-01-15T03:29:03.233Z,0.5
2024-01-15T03:30:10.464Z,0.5
2024-01-15T03:32:24.036Z,0.6
2024-01-15T03:33:31.314Z,0.6
2024-01-15T03:34:38.409Z,0.6
2024-01-15T03:35:45.311Z,0.6
2024-01-15T03:36:52.531Z,0.6
2024-01-15T03:37:58.986Z,0.6
2024-01-15T03:39:06.224Z,0.7
2024-01-15T03:40:13.371Z,0.6
2024-01-15T03:41:20.335Z,0.6
2024-01-15T03:42:27.455Z,0.6
2024-01-15T03:43:34.079Z,0.6
2024-01-15T03:44:41.152Z,0.6
2024-01-15T03:45:48.289Z,0.6
2024-01-15T03:46:55.375Z,0.6
2024-01-15T03:48:02.612Z,0.6
2024-01-15T03:49:09.139Z,0.6
2024-01-15T03:50:16.701Z,0.6
2024-01-15T03:51:23.300Z,0.6
2024-01-15T03:52:30.334Z,0.6
2024-01-15T03:53:37.452Z,0.6
2024-01-15T03:54:44.063Z,0.6
2024-01-15T03:55:51.137Z,0.6
2024-01-15T03:56:58.291Z,0.6
2024-01-15T03:58:05.342Z,0.6
2024-01-15T03:59:12.451Z,0.7
2024-01-15T04:00:19.162Z,0.7
2024-01-15T04:01:26.189Z,0.7
2024-01-15T04:02:33.262Z,0.7
2024-01-15T04:03:40.487Z,0.7
2024-01-15T04:04:47.613Z,0.7
2024-01-15T04:05:54.120Z,0.7
2024-01-15T04:07:01.158Z,0.7
2024-01-15T04:08:08.301Z,0.7
2024-01-15T04:09:15.556Z,0.6
2024-01-15T04:10:22.464Z,0.6
2024-01-15T04:11:29.037Z,0.7
2024-01-15T04:12:36.210Z,0.7
2024-01-15T04:13:43.465Z,0.6
2024-01-15T04:14:50.344Z,0.6
2024-01-15T04:15:57.582Z,0.6
2024-01-15T04:17:04.118Z,0.5
2024-01-15T04:18:11.235Z,0.5
2024-01-15T04:19:19.260Z,0.5
2024-01-15T04:20:25.914Z,0.5
2024-01-15T04:21:32.578Z,0.4
2024-01-15T04:22:39.067Z,0.4
2024-01-15T04:23:46.236Z,0.4
2024-01-15T04:24:53.523Z,0.4
2024-01-15T04:26:00.391Z,0.4
2024-01-15T04:27:07.570Z,0.4
2024-01-15T04:28:14.618Z,0.4
2024-01-15T04:29:21.169Z,0.4
2024-01-15T04:30:28.401Z,0.3
2024-01-15T04:31:35.455Z,0.3
2024-01-15T04:32:42.546Z,0.3
2024-01-15T04:33:49.164Z,0.3
2024-01-15T04:36:05.419Z,0.3
2024-01-15T04:37:10.423Z,0.4
2024-01-15T04:38:17.499Z,0.4
2024-01-15T04:39:24.122Z,0.4
2024-01-15T04:40:31.177Z,0.4
2024-01-15T04:41:38.364Z,0.5
2024-01-15T04:42:45.514Z,0.5
2024-01-15T04:43:52.516Z,0.5
2024-01-15T04:44:59.073Z,0.5
2024-01-15T04:46:06.261Z,0.5
2024-01-15T04:47:13.304Z,0.5
2024-01-15T04:48:20.455Z,0.5
2024-01-15T04:49:27.583Z,0.5
2024-01-15T04:50:34.112Z,0.5
2024-01-15T04:51:41.213Z,0.4
2024-01-15T04:52:48.296Z,0.4
2024-01-15T04:53:56.006Z,0.4
2024-01-15T04:55:02.566Z,0.4
2024-01-15T04:56:09.110Z,0.4
2024-01-15T04:57:16.371Z,0.4
2024-01-15T04:58:23.363Z,0.4
2024-01-15T04:59:30.523Z,0.3
2024-01-15T05:00:37.720Z,0.3
2024-01-15T05:01:44.297Z,0.3
2024-01-15T05:02:51.231Z,0.4
2024-01-15T05:04:00.287Z,0.4
2024-01-15T05:05:05.434Z,0.4
2024-01-15T05:06:12.641Z,0.4
2024-01-15T05:07:19.152Z,0.4
2024-01-15T05:08:26.235Z,0.4
2024-01-15T05:09:33.636Z,0.4
2024-01-15T05:10:40.432Z,0.4
2024-01-15T05:11:47.530Z,0.4
2024-01-15T05:12:54.266Z,0.4
2024-01-15T05:14:01.255Z,0.4
2024-01-15T05:15:08.402Z,0.3
2024-01-15T05:16:15.508Z,0.3
2024-01-15T05:17:22.098Z,0.3
2024-01-15T05:18:29.430Z,0.2
2024-01-15T05:19:36.359Z,0.2
2024-01-15T05:20:43.486Z,0.2
2024-01-15T05:21:50.586Z,0.2
2024-01-15T05:22:57.132Z,0.2
2024-01-15T05:24:04.163Z,0.2
2024-01-15T05:25:11.369Z,0.2
2024-01-15T05:26:18.396Z,0.2
2024-01-15T05:27:25.541Z,0.2
2024-01-15T05:28:32.614Z,0.2
2024-01-15T05:29:39.184Z,0.2
2024-01-15T05:30:46.402Z,0.2
2024-01-15T05:31:53.580Z,0.2
2024-01-15T05:33:00.587Z,0.2
2024-01-15T05:34:07.693Z,0.3
2024-01-15T05:35:14.238Z,0.3
2024-01-15T05:36:21.309Z,0.3
2024-01-15T05:37:28.406Z,0.3
2024-01-15T05:39:42.370Z,0.3
2024-01-15T05:40:49.212Z,0.2
2024-01-15T05:41:56.298Z,0.2
2024-01-15T05:43:03.418Z,0.2
2024-01-15T05:44:10.461Z,0.2
2024-01-15T05:45:17.154Z,0.1
2024-01-15T05:46:24.282Z,0.1
2024-01-15T05:47:31.299Z,0.1
2024-01-15T05:48:38.495Z,0.1
2024-01-15T05:49:45.598Z,0.1
2024-01-15T05:50:52.197Z,0.1
2024-01-15T05:51:59.258Z,0.1
2024-01-15T05:53:06.344Z,0.1
2024-01-15T05:54:13.460Z,0.1
2024-01-15T05:55:20.559Z,0.1
2024-01-15T05:57:34.811Z,0.2
2024-01-15T05:58:41.329Z,0.2
2024-01-15T05:59:48.471Z,0.2
2024-01-15T06:00:55.599Z,0.2
2024-01-15T06:02:02.167Z,0.2
2024-01-15T06:03:09.409Z,0.2
2024-01-15T06:04:16.548Z,0.2
2024-01-15T06:05:23.570Z,0.2
2024-01-15T06:06:30.581Z,0.2
2024-01-15T06:07:37.111Z,0.2
2024-01-15T06:08:44.235Z,0.2
2024-01-15T06:09:51.430Z,0.2
2024-01-15T06:11:01.773Z,0.2
2024-01-15T06:12:05.523Z,0.2
2024-01-15T06:13:12.201Z,0.2
2024-01-15T06:14:19.220Z,0.3
2024-01-15T06:15:26.385Z,0.2
2024-01-15T06:16:33.554Z,0.2
2024-01-15T06:17:40.575Z,0.3
2024-01-15T06:18:47.287Z,0.3
2024-01-15T06:19:54.424Z,0.2
2024-01-15T06:21:01.318Z,0.2
2024-01-15T06:22:08.473Z,0.3
2024-01-15T06:23:17.234Z,0.3
2024-01-15T06:24:22.253Z,0.3
2024-01-15T06:25:29.276Z,0.3
2024-01-15T06:26:36.493Z,0.3
2024-01-15T06:27:43.554Z,0.2
2024-01-15T06:28:50.555Z,0.2
2024-01-15T06:29:57.186Z,0.2
2024-01-15T06:31:04.416Z,0.2
2024-01-15T06:32:11.488Z,0.2
2024-01-15T06:33:18.587Z,0.2
2024-01-15T06:34:25.586Z,0.2
2024-01-15T06:35:32.677Z,0.2
2024-01-15T06:36:39.406Z,0.2
2024-01-15T06:37:46.388Z,0.2
2024-01-15T06:38:53.481Z,0.2
2024-01-15T06:40:00.714Z,0.2
2024-01-15T06:41:07.209Z,0.1
2024-01-15T06:43:21.415Z,0.1
2024-01-15T06:44:28.441Z,0.1
2024-01-15T06:45:35.646Z,0.1
2024-01-15T06:46:42.303Z,0.1
2024-01-15T06:47:49.280Z,0.2
2024-01-15T06:48:56.490Z,0.2
2024-01-15T06:50:03.608Z,0.2
2024-01-15T06:51:10.608Z,0.2
2024-01-15T06:52:17.239Z,0.2
2024-01-15T06:53:24.320Z,0.2
2024-01-15T06:54:31.408Z,0.2
2024-01-15T06:55:38.501Z,0.2
2024-01-15T06:56:45.597Z,0.2
2024-01-15T06:57:52.352Z,0.3
2024-01-15T06:58:59.292Z,0.3
2024-01-15T07:00:06.406Z,0.3
2024-01-15T07:01:14.121Z,0.3
2024-01-15T07:02:20.590Z,0.3
2024-01-15T07:03:27.334Z,0.3
2024-01-15T07:04:34.336Z,0.3
2024-01-15T07:05:41.563Z,0.3
2024-01-15T07:06:48.540Z,0.4
2024-01-15T07:07:55.662Z,0.4
2024-01-15T07:09:02.340Z,0.4
2024-01-15T07:10:09.309Z,0.4
2024-01-15T07:11:16.403Z,0.5
2024-01-15T07:12:23.570Z,0.4
2024-01-15T07:13:30.757Z,0.5
2024-01-15T07:14:37.209Z,0.4
2024-01-15T07:15:44.364Z,0.4
2024-01-15T07:16:51.414Z,0.4
2024-01-15T07:17:58.543Z,0.4
2024-01-15T07:19:05.916Z,0.4
2024-01-15T07:20:12.250Z,0.4
2024-01-15T07:21:19.464Z,0.4
2024-01-15T07:22:26.469Z,0.4
2024-01-15T07:23:33.552Z,0.4
2024-01-15T07:25:47.326Z,0.4
2024-01-15T07:26:54.340Z,0.4
2024-01-15T07:28:01.533Z,0.4
2024-01-15T07:29:08.535Z,0.4
2024-01-15T07:30:15.812Z,0.4
2024-01-15T07:31:22.491Z,0.4
2024-01-15T07:32:29.394Z,0.4
2024-01-15T07:33:36.521Z,0.4
2024-01-15T07:34:43.696Z,0.3
2024-01-15T07:35:50.674Z,0.3
2024-01-15T07:36:57.320Z,0.3
2024-01-15T07:38:04.367Z,0.3
2024-01-15T07:39:11.478Z,0.3
2024-01-15T07:40:18.566Z,0.3
2024-01-15T07:41:25.701Z,0.3
2024-01-15T07:42:32.287Z,0.3
2024-01-15T07:43:39.360Z,0.3
2024-01-15T07:44:46.499Z,0.3
2024-01-15T07:47:00.636Z,0.3
2024-01-15T07:48:07.314Z,0.3
2024-01-15T07:49:14.488Z,0.3
2024-01-15T07:50:21.503Z,0.3
2024-01-15T07:51:28.637Z,0.3
2024-01-15T07:52:35.710Z,0.3
2024-01-15T07:53:42.226Z,0.3
2024-01-15T07:54:49.575Z,0.4
2024-01-15T07:55:56.477Z,0.3
2024-01-15T07:57:03.593Z,0.4
2024-01-15T07:58:16.092Z,0.4
2024-01-15T07:59:17.315Z,0.4
2024-01-15T08:00:24.461Z,0.4
2024-01-15T08:01:31.501Z,0.4
2024-01-15T08:02:38.646Z,0.4
2024-01-15T08:03:45.787Z,0.3
2024-01-15T08:04:52.852Z,0.4
2024-01-15T08:05:59.398Z,0.4
2024-01-15T08:07:06.540Z,0.4
2024-01-15T08:08:13.614Z,0.4
2024-01-15T08:09:20.892Z,0.4
2024-01-15T08:10:27.299Z,0.4
2024-01-15T08:11:34.357Z,0.4
2024-01-15T08:12:41.508Z,0.5
2024-01-15T08:13:48.612Z,0.4
2024-01-15T08:14:55.851Z,0.4
2024-01-15T08:16:02.285Z,0.4
2024-01-15T08:17:09.439Z,0.4
2024-01-15T08:18:16.790Z,0.4
2024-01-15T08:19:23.728Z,0.4
2024-01-15T08:20:30.943Z,0.3
2024-01-15T08:21:37.305Z,0.3
2024-01-15T08:22:44.445Z,0.3
2024-01-15T08:23:51.500Z,0.3
2024-01-15T08:24:58.631Z,0.2
2024-01-15T08:26:05.787Z,0.2
2024-01-15T08:27:12.326Z,0.2
2024-01-15T08:28:19.399Z,0.2
2024-01-15T08:29:26.523Z,0.2
2024-01-15T08:30:35.293Z,0.2
2024-01-15T08:31:41.113Z,0.1
2024-01-15T08:32:47.388Z,0.1
2024-01-15T08:33:54.613Z,0.1
2024-01-15T08:35:01.619Z,0.1
2024-01-15T08:36:08.737Z,0.1
2024-01-15T08:37:15.734Z,0
2024-01-15T08:38:22.309Z,0
2024-01-15T08:39:29.455Z,-0.1
2024-01-15T08:40:36.532Z,-0.1
2024-01-15T08:41:43.641Z,-0.1
2024-01-15T08:42:50.261Z,-0.2
2024-01-15T08:43:57.322Z,-0.2
2024-01-15T08:45:04.452Z,-0.3
2024-01-15T08:46:11.664Z,-0.3
2024-01-15T08:47:18.679Z,-0.3
2024-01-15T08:48:25.327Z,-0.5
2024-01-15T08:50:39.403Z,-0.6
2024-01-15T08:51:46.602Z,-0.7
2024-01-15T08:54:00.842Z,-0.8
2024-01-15T08:55:07.340Z,-0.8
2024-01-15T08:56:14.482Z,-0.8
2024-01-15T08:57:21.564Z,-0.7
2024-01-15T08:58:28.654Z,-0.6
2024-01-15T08:59:35.343Z,-0.6
2024-01-15T09:00:42.438Z,-0.6
2024-01-15T09:01:49.963Z,-0.6
2024-01-15T09:02:56.568Z,-0.6
2024-01-15T09:04:03.720Z,-0.6
2024-01-15T09:05:10.432Z,-0.5
2024-01-15T09:06:17.451Z,-0.5
2024-01-15T09:07:24.511Z,-0.5
2024-01-15T09:08:31.585Z,-0.4
2024-01-15T09:09:38.728Z,-0.4
2024-01-15T09:10:45.931Z,-0.3
2024-01-15T09:11:52.380Z,-0.3
2024-01-15T09:12:59.530Z,-0.3
2024-01-15T09:14:06.597Z,-0.2
2024-01-15T09:15:13.674Z,-0.1
2024-01-15T09:16:20.818Z,0
2024-01-15T09:17:27.362Z,0
2024-01-15T09:18:34.561Z,0
2024-01-15T09:19:41.669Z,0.2
2024-01-15T09:20:48.697Z,0.2
2024-01-15T09:21:55.952Z,0.3
2024-01-15T09:23:02.408Z,0.4
2024-01-15T09:24:09.550Z,0.4
2024-01-15T09:25:16.678Z,0.5
2024-01-15T09:26:23.711Z,0.5
2024-01-15T09:27:30.832Z,0.5
2024-01-15T09:28:37.401Z,0.5
2024-01-15T09:29:44.506Z,0.5
2024-01-15T09:30:51.674Z,0.6
2024-01-15T09:31:58.899Z,0.6
2024-01-15T09:33:05.889Z,0.6
2024-01-15T09:34:12.479Z,0.6
2024-01-15T09:35:21.282Z,0.7
2024-01-15T09:36:26.663Z,0.7
2024-01-15T09:37:42.326Z,0.7
2024-01-15T09:38:40.835Z,0.7
2024-01-15T09:39:47.468Z,0.7
2024-01-15T09:40:54.503Z,0.7
2024-01-15T09:42:01.649Z,0.7
2024-01-15T09:43:08.760Z,0.7
2024-01-15T09:44:15.319Z,0.8
2024-01-15T09:45:22.493Z,0.8
2024-01-15T09:46:29.491Z,0.8
2024-01-15T09:47:36.654Z,0.8
2024-01-15T09:48:43.811Z,0.8
2024-01-15T09:49:50.545Z,0.8
2024-01-15T09:50:57.464Z,0.8
2024-01-15T09:52:09.448Z,0.8
2024-01-15T09:53:11.621Z,0.8
2024-01-15T09:54:18.745Z,0.8
2024-01-15T09:55:25.366Z,0.8
2024-01-15T09:56:32.458Z,0.9
2024-01-15T09:57:39.583Z,0.8
2024-01-15T09:58:46.676Z,0.8
2024-01-15T09:59:53.730Z,0.9
2024-01-15T10:01:00.908Z,0.9
2024-01-15T10:02:07.469Z,0.8
2024-01-15T10:03:14.691Z,0.8
2024-01-15T10:04:21.773Z,0.8
2024-01-15T10:05:28.743Z,0.8
2024-01-15T10:06:35.438Z,0.9
2024-01-15T10:07:42.552Z,0.8
2024-01-15T10:08:49.524Z,0.8
2024-01-15T10:09:56.842Z,0.8
2024-01-15T10:11:03.768Z,0.8
2024-01-15T10:12:10.856Z,0.8
2024-01-15T10:13:17.500Z,0.8
2024-01-15T10:14:24.551Z,0.9
2024-01-15T10:15:31.685Z,0.9
2024-01-15T10:16:38.789Z,0.9
2024-01-15T10:17:47.001Z,0.9
2024-01-15T10:18:52.868Z,1
2024-01-15T10:19:59.604Z,1
2024-01-15T10:22:16.451Z,1
2024-01-15T10:23:20.355Z,1
2024-01-15T10:24:28.308Z,1
2024-01-15T10:25:34.570Z,1
2024-01-15T10:26:41.687Z,1
2024-01-15T10:27:48.805Z,1
2024-01-15T10:28:55.428Z,1
2024-01-15T10:30:02.561Z,1
2024-01-15T10:31:09.632Z,1
2024-01-15T10:32:16.648Z,1
2024-01-15T10:33:23.951Z,1
2024-01-15T10:34:30.431Z,1
2024-01-15T10:35:37.479Z,1
2024-01-15T10:36:44.629Z,1
2024-01-15T10:37:51.712Z,1.1
2024-01-15T10:38:58.801Z,1
2024-01-15T10:40:05.423Z,1
2024-01-15T10:41:12.577Z,1.1
2024-01-15T10:42:19.685Z,1.1
2024-01-15T10:43:29.316Z,1.1
2024-01-15T10:44:33.802Z,1.1
2024-01-15T10:45:40.573Z,1.2
2024-01-15T10:46:47.648Z,1.2
2024-01-15T10:47:54.688Z,1.2
2024-01-15T10:49:03.444Z,1.2
2024-01-15T10:50:08.889Z,1.2
2024-01-15T10:51:15.553Z,1.2
2024-01-15T10:52:22.509Z,1.2
2024-01-15T10:53:29.619Z,1.2
2024-01-15T10:54:36.759Z,1.2
2024-01-15T10:55:43.837Z,1.2
2024-01-15T10:56:50.386Z,1.2
2024-01-15T10:57:57.671Z,1.2
2024-01-15T10:59:04.646Z,1.2
2024-01-15T11:00:11.751Z,1.2
2024-01-15T11:01:18.992Z,1.2
2024-01-15T11:02:25.525Z,1.2
2024-01-15T11:03:32.691Z,1.3
2024-01-15T11:04:39.865Z,1.3
2024-01-15T11:05:46.784Z,1.3
2024-01-15T11:06:53.906Z,1.3
2024-01-15T11:08:00.406Z,1.3
2024-01-15T11:09:07.583Z,1.3
2024-01-15T11:10:14.638Z,1.3
2024-01-15T11:11:21.737Z,1.4
2024-01-15T11:12:28.924Z,1.3
2024-01-15T11:13:35.493Z,1.3
2024-01-15T11:14:42.605Z,1.3
2024-01-15T11:16:56.748Z,1.3
2024-01-15T11:18:04.010Z,1.3
2024-01-15T11:19:10.497Z,1.3
2024-01-15T11:20:18.470Z,1.3
2024-01-15T11:21:24.846Z,1.3
2024-01-15T11:22:31.798Z,1.3
2024-01-15T11:23:38.866Z,1.3
2024-01-15T11:24:45.524Z,1.3
2024-01-15T11:25:52.637Z,1.3
2024-01-15T11:26:59.678Z,1.3
2024-01-15T11:28:06.817Z,1.3
2024-01-15T11:29:13.849Z,1.3
2024-01-15T11:30:20.495Z,1.3
2024-01-15T11:31:27.672Z,1.3
2024-01-15T11:32:34.745Z,1.2
2024-01-15T11:33:41.914Z,1.3
2024-01-15T11:34:48.994Z,1.2
2024-01-15T11:35:55.497Z,1.2
2024-01-15T11:37:03.379Z,1.2
2024-01-15T11:38:09.685Z,1.2
2024-01-15T11:39:16.810Z,1.2
2024-01-15T11:40:23.960Z,1.2
2024-01-15T11:41:30.449Z,1.2
2024-01-15T11:42:37.657Z,1.2
2024-01-15T11:43:44.713Z,1.2
2024-01-15T11:44:51.940Z,1.2
2024-01-15T11:45:58.949Z,1.2
2024-01-15T11:47:05.482Z,1.2
2024-01-15T11:48:12.801Z,1.2
2024-01-15T11:50:26.813Z,1.2
2024-01-15T11:51:33.991Z,1.2
2024-01-15T11:52:40.490Z,1.3
2024-01-15T11:53:47.602Z,1.3
2024-01-15T11:54:54.802Z,1.3
2024-01-15T11:56:01.798Z,1.3
2024-01-15T11:57:08.902Z,1.2
2024-01-15T11:58:15.579Z,1.1
2024-01-15T11:59:22.595Z,1
2024-01-15T12:00:29.756Z,1
2024-01-15T12:01:36.910Z,0.9
2024-01-15T12:02:43.892Z,0.8
2024-01-15T12:03:50.677Z,0.8
2024-01-15T12:04:57.659Z,0.7
2024-01-15T12:06:04.750Z,0.7
2024-01-15T12:07:11.946Z,0.7
2024-01-15T12:09:25.640Z,0.7
2024-01-15T12:10:32.618Z,0.7
2024-01-15T12:15:00.583Z,0.6
2024-01-15T12:16:07.869Z,0.7
2024-01-15T12:17:14.817Z,0.8
2024-01-15T12:18:22.233Z,0.8
2024-01-15T12:20:35.574Z,0.9
2024-01-15T12:21:42.719Z,0.9
2024-01-15T12:22:57.639Z,0.9
2024-01-15T12:23:56.880Z,0.8
2024-01-15T12:25:03.952Z,0.7
2024-01-15T12:26:10.774Z,0.6
2024-01-15T12:27:17.692Z,0.5
2024-01-15T12:28:24.863Z,0.5
2024-01-15T12:29:31.841Z,0.5
2024-01-15T12:30:38.715Z,0.4
2024-01-15T12:31:45.711Z,0.4
2024-01-15T12:32:52.731Z,0.4
2024-01-15T12:33:59.798Z,0.4
2024-01-15T12:35:06.854Z,0.4
2024-01-15T12:36:13.629Z,0.4
2024-01-15T12:37:21.219Z,0.4
2024-01-15T12:38:27.643Z,0.4
2024-01-15T12:39:34.815Z,0.4
2024-01-15T12:40:42.130Z,0.4
2024-01-15T12:41:48.442Z,0.4
2024-01-15T12:42:55.592Z,0.4
2024-01-15T12:44:02.722Z,0.4
2024-01-15T12:45:09.767Z,0.4
2024-01-15T12:46:16.974Z,0.4
2024-01-15T12:47:23.536Z,0.4
2024-01-15T12:48:30.604Z,0.4
2024-01-15T12:49:37.687Z,0.4
2024-01-15T12:50:44.768Z,0.4
2024-01-15T12:51:51.960Z,0.5
2024-01-15T12:52:58.575Z,0.5
2024-01-15T12:54:05.600Z,0.6
2024-01-15T12:55:12.694Z,0.6
2024-01-15T12:56:19.752Z,0.7
2024-01-15T12:57:26.954Z,0.8
2024-01-15T12:58:33.515Z,0.8
2024-01-15T12:59:40.577Z,0.9
2024-01-15T13:00:47.724Z,1
2024-01-15T13:01:55.171Z,1
2024-01-15T13:03:02.039Z,1.1
2024-01-15T13:04:08.545Z,1.2
2024-01-15T13:05:16.360Z,1.2
2024-01-15T13:06:22.851Z,1.2
2024-01-15T13:07:29.832Z,1.2
2024-01-15T13:08:36.963Z,1.2
2024-01-15T13:09:43.991Z,1.2
2024-01-15T13:10:50.565Z,1.2
2024-01-15T13:11:57.670Z,1.2
2024-01-15T13:13:04.820Z,1.1
2024-01-15T13:14:11.945Z,1.1
2024-01-15T13:15:18.584Z,1
2024-01-15T13:16:26.365Z,1
2024-01-15T13:18:39.953Z,1
2024-01-15T13:19:47.174Z,1
2024-01-15T13:20:53.556Z,1
2024-01-15T13:22:00.624Z,0.9
2024-01-15T13:24:14.849Z,0.9
2024-01-15T13:25:21.925Z,0.9
2024-01-15T13:26:28.477Z,0.8
2024-01-15T13:27:35.815Z,0.9
2024-01-15T13:28:42.754Z,0.8
2024-01-15T13:29:49.824Z,0.9
2024-01-15T13:30:57.015Z,0.8
2024-01-15T13:32:03.512Z,0.8
2024-01-15T13:33:10.712Z,0.8
2024-01-15T13:34:17.914Z,0.8
2024-01-15T13:35:24.838Z,0.8
2024-01-15T13:36:31.996Z,0.8
2024-01-15T13:37:38.564Z,0.8
2024-01-15T13:38:45.660Z,0.8
2024-01-15T13:39:52.942Z,0.8
2024-01-15T13:40:59.816Z,0.8
2024-01-15T13:42:07.002Z,0.9
2024-01-15T13:43:13.629Z,0.9
2024-01-15T13:44:21.119Z,0.9
2024-01-15T13:45:27.797Z,0.9
2024-01-15T13:46:34.868Z,1
2024-01-15T13:47:41.962Z,1
2024-01-15T13:48:48.727Z,1
2024-01-15T13:49:55.681Z,1
2024-01-15T13:51:02.768Z,1
2024-01-15T13:52:09.846Z,1.1
2024-01-15T13:53:17.094Z,1.2
2024-01-15T13:54:25.707Z,1.2
2024-01-15T13:55:30.779Z,1.2
2024-01-15T13:56:37.760Z,1.3
2024-01-15T13:57:44.877Z,1.3
2024-01-15T13:58:52.037Z,1.3
2024-01-15T13:59:58.546Z,1.3
2024-01-15T14:01:05.860Z,1.3
2024-01-15T14:02:14.522Z,1.3
2024-01-15T14:03:19.956Z,1.3
2024-01-15T14:04:27.019Z,1.3
2024-01-15T14:05:33.625Z,1.3
2024-01-15T14:06:40.675Z,1.3
2024-01-15T14:07:47.829Z,1.2
2024-01-15T14:08:56.452Z,1.2
2024-01-15T14:10:02.150Z,1.2
2024-01-15T14:11:08.565Z,1.1
2024-01-15T14:12:17.373Z,1
2024-01-15T14:13:22.841Z,1
2024-01-15T14:14:29.906Z,0.9
2024-01-15T14:15:37.070Z,0.9
2024-01-15T14:16:43.628Z,0.8
2024-01-15T14:17:50.732Z,0.8
2024-01-15T14:18:57.940Z,0.8
2024-01-15T14:20:04.922Z,0.8
2024-01-15T14:21:12.183Z,0.7
2024-01-15T14:22:18.588Z,0.7
2024-01-15T14:23:25.702Z,0.7
2024-01-15T14:24:33.090Z,0.7
2024-01-15T14:25:39.908Z,0.6
2024-01-15T14:27:53.853Z,0.6
2024-01-15T14:29:00.715Z,0.6
2024-01-15T14:30:07.892Z,0.7
2024-01-15T14:31:14.958Z,0.6
2024-01-15T14:32:22.156Z,0.6
2024-01-15T14:33:28.810Z,0.6
2024-01-15T14:34:35.813Z,0.6
2024-01-15T14:35:42.932Z,0.6
2024-01-15T14:36:50.006Z,0.7
2024-01-15T14:37:57.028Z,0.7
2024-01-15T14:39:03.637Z,0.7
2024-01-15T14:40:10.846Z,0.8
2024-01-15T14:41:17.849Z,0.8
2024-01-15T14:42:24.988Z,0.8
2024-01-15T14:43:32.022Z,0.8
2024-01-15T14:44:38.638Z,0.8
2024-01-15T14:46:54.280Z,0.9
2024-01-15T14:48:00.025Z,0.9
2024-01-15T14:49:07.135Z,1
2024-01-15T14:50:13.801Z,1
2024-01-15T14:51:20.831Z,1
2024-01-15T14:52:28.633Z,1
2024-01-15T14:53:34.908Z,1.1
2024-01-15T14:54:42.115Z,1
2024-01-15T14:55:48.679Z,1.1
2024-01-15T14:56:55.820Z,1.1
2024-01-15T14:58:02.924Z,1.1
2024-01-15T14:59:09.922Z,1.1
2024-01-15T15:00:17.170Z,1.1
2024-01-15T15:01:23.668Z,1.1
2024-01-15T15:02:33.055Z,1.1
2024-01-15T15:03:37.990Z,1.1
2024-01-15T15:04:47.423Z,1.2
2024-01-15T15:05:51.575Z,1.2
2024-01-15T15:06:58.750Z,1.2
2024-01-15T15:08:05.750Z,1.2
2024-01-15T15:09:12.950Z,1.2
2024-01-15T15:10:19.989Z,1.2
2024-01-15T15:11:26.603Z,1.2
2024-01-15T15:12:33.711Z,1.3
2024-01-15T15:13:45.487Z,1.2
2024-01-15T15:14:56.239Z,1.2
2024-01-15T15:15:55.012Z,1.2
2024-01-15T15:17:01.540Z,1.2
2024-01-15T15:18:08.694Z,1.3
2024-01-15T15:19:15.889Z,1.2
2024-01-15T15:20:22.998Z,1.2
2024-01-15T15:21:30.001Z,1.1
2024-01-15T15:22:36.621Z,1.2
2024-01-15T15:23:43.812Z,1.2
2024-01-15T15:24:50.827Z,1.2
2024-01-15T15:25:58.019Z,1.2
2024-01-15T15:27:05.111Z,1.2
2024-01-15T15:28:11.581Z,1.1
2024-01-15T15:29:18.675Z,1.1
2024-01-15T15:31:32.908Z,1
2024-01-15T15:32:40.049Z,1
2024-01-15T15:33:46.683Z,0.9
2024-01-15T15:34:53.843Z,0.9
2024-01-15T15:36:00.851Z,0.9
2024-01-15T15:37:07.908Z,0.9
2024-01-15T15:38:15.035Z,0.9
2024-01-15T15:39:21.627Z,0.8
2024-01-15T15:40:28.652Z,0.8
2024-01-15T15:41:35.826Z,0.8
2024-01-15T15:42:42.978Z,0.8
2024-01-15T15:43:50.083Z,0.7
2024-01-15T15:44:58.757Z,0.7
2024-01-15T15:46:03.804Z,0.7
2024-01-15T15:47:10.855Z,0.7
2024-01-15T15:48:18.102Z,0.6
2024-01-15T15:49:25.380Z,0.7
2024-01-15T15:50:34.462Z,0.6
2024-01-15T15:51:38.769Z,0.6
2024-01-15T15:52:45.816Z,0.6
2024-01-15T15:53:53.012Z,0.6
2024-01-15T15:55:00.189Z,0.6
2024-01-15T15:56:06.615Z,0.7
2024-01-15T15:57:13.792Z,0.6
2024-01-15T15:58:20.821Z,0.6
2024-01-15T15:59:27.959Z,0.6
2024-01-15T16:00:35.062Z,0.6
2024-01-15T16:01:41.631Z,0.6
2024-01-15T16:02:48.690Z,0.6
2024-01-15T16:03:55.911Z,0.6
2024-01-15T16:05:03.056Z,0.5
2024-01-15T16:06:10.106Z,0.5
2024-01-15T16:07:16.741Z,0.5
2024-01-15T16:08:23.759Z,0.5